createdAt,value
2022-12-16T00:00:33.322Z,982.04
2022-12-16T00:01:33.380Z,982.06
2022-12-16T00:02:33.426Z,982.03
2022-12-16T00:03:33.635Z,982.04
2022-12-16T00:04:33.249Z,982.06
2022-12-16T00:05:33.258Z,981.97
2022-12-16T00:06:33.222Z,981.97
2022-12-16T00:07:33.234Z,982.02
2022-12-16T00:08:33.212Z,982.11
2022-12-16T00:09:33.205Z,982.05
2022-12-16T00:10:33.191Z,982.07
2022-12-16T00:11:33.210Z,982.11
2022-12-16T00:12:33.185Z,982.08
2022-12-16T00:13:33.574Z,982.12
2022-12-16T00:14:33.164Z,982.10
2022-12-16T00:15:33.148Z,982.14
2022-12-16T00:16:33.220Z,982.09
2022-12-16T00:17:33.140Z,982.10
2022-12-16T00:18:33.150Z,982.03
2022-12-16T00:19:33.134Z,982.04
2022-12-16T00:20:33.129Z,982.04
2022-12-16T00:21:33.126Z,982.05
2022-12-16T00:22:33.119Z,981.96
2022-12-16T00:23:33.419Z,982.01
2022-12-16T00:24:33.074Z,981.95
2022-12-16T00:25:33.061Z,982.01
2022-12-16T00:26:33.057Z,981.92
2022-12-16T00:27:33.074Z,981.98
2022-12-16T00:28:33.043Z,982.00
2022-12-16T00:29:33.032Z,982.01
2022-12-16T00:30:33.028Z,982.02
2022-12-16T00:31:33.110Z,982.03
2022-12-16T00:32:33.032Z,982.00
2022-12-16T00:33:33.549Z,981.96
2022-12-16T00:34:32.987Z,982.01
2022-12-16T00:35:32.981Z,982.03
2022-12-16T00:36:32.968Z,981.97
2022-12-16T00:37:32.951Z,982.01
2022-12-16T00:38:33.000Z,981.98
2022-12-16T00:39:32.964Z,982.00
2022-12-16T00:40:32.919Z,982.01
2022-12-16T00:41:32.930Z,982.06
2022-12-16T00:42:32.907Z,982.14
2022-12-16T00:43:33.438Z,982.08
2022-12-16T00:44:32.952Z,982.10
2022-12-16T00:45:32.923Z,982.07
2022-12-16T00:46:32.888Z,982.09
2022-12-16T00:47:32.874Z,982.04
2022-12-16T00:48:32.864Z,982.01
2022-12-16T00:49:32.874Z,982.00
2022-12-16T00:50:32.858Z,982.05
2022-12-16T00:51:32.831Z,982.00
2022-12-16T00:52:32.873Z,981.97
2022-12-16T00:53:33.241Z,982.06
2022-12-16T00:54:32.800Z,982.07
2022-12-16T00:55:32.807Z,982.03
2022-12-16T00:56:32.794Z,982.08
2022-12-16T00:57:33.787Z,982.03
2022-12-16T00:58:32.774Z,982.02
2022-12-16T00:59:32.764Z,982.06
2022-12-16T01:00:32.764Z,982.02
2022-12-16T01:01:32.945Z,982.09
2022-12-16T01:02:32.907Z,982.01
2022-12-16T01:03:32.907Z,982.02
2022-12-16T01:04:32.706Z,982.01
2022-12-16T01:05:32.716Z,982.00
2022-12-16T01:06:32.706Z,982.01
2022-12-16T01:07:32.675Z,982.04
2022-12-16T01:08:32.705Z,981.98
2022-12-16T01:09:32.691Z,982.06
2022-12-16T01:10:32.662Z,982.07
2022-12-16T01:11:32.683Z,982.06
2022-12-16T01:12:32.658Z,982.04
2022-12-16T01:13:32.926Z,982.05
2022-12-16T01:14:32.657Z,982.03
2022-12-16T01:15:32.659Z,982.01
2022-12-16T01:16:32.680Z,982.06
2022-12-16T01:17:32.598Z,982.02
2022-12-16T01:18:32.583Z,982.01
2022-12-16T01:19:32.587Z,982.02
2022-12-16T01:20:32.605Z,982.06
2022-12-16T01:21:32.573Z,982.05
2022-12-16T01:22:32.549Z,982.04
2022-12-16T01:23:32.992Z,982.08
2022-12-16T01:24:32.512Z,982.09
2022-12-16T01:25:32.544Z,982.17
2022-12-16T01:26:32.505Z,982.11
2022-12-16T01:27:32.525Z,982.10
2022-12-16T01:28:32.506Z,982.14
2022-12-16T01:29:32.492Z,982.14
2022-12-16T01:30:32.457Z,982.15
2022-12-16T01:31:33.534Z,982.19
2022-12-16T01:32:32.471Z,982.15
2022-12-16T01:33:32.861Z,982.18
2022-12-16T01:34:32.447Z,982.21
2022-12-16T01:36:01.398Z,982.18
2022-12-16T01:36:34.419Z,982.19
2022-12-16T01:37:32.415Z,982.18
2022-12-16T01:38:32.391Z,982.20
2022-12-16T01:39:32.404Z,982.22
2022-12-16T01:40:32.404Z,982.16
2022-12-16T01:41:32.395Z,982.15
2022-12-16T01:42:32.361Z,982.20
2022-12-16T01:43:32.668Z,982.18
2022-12-16T01:44:33.338Z,982.17
2022-12-16T01:45:32.412Z,982.20
2022-12-16T01:46:32.333Z,982.19
2022-12-16T01:47:32.329Z,982.17
2022-12-16T01:48:32.335Z,982.21
2022-12-16T01:49:32.313Z,982.16
2022-12-16T01:50:32.319Z,982.18
2022-12-16T01:51:33.300Z,982.13
2022-12-16T01:52:32.304Z,982.15
2022-12-16T01:53:32.714Z,982.11
2022-12-16T01:54:32.268Z,982.23
2022-12-16T01:55:32.264Z,982.23
2022-12-16T01:56:32.253Z,982.24
2022-12-16T01:57:32.225Z,982.20
2022-12-16T01:58:32.241Z,982.18
2022-12-16T01:59:32.234Z,982.13
2022-12-16T02:00:32.211Z,982.15
2022-12-16T02:01:32.364Z,982.18
2022-12-16T02:02:32.283Z,982.10
2022-12-16T02:03:32.607Z,982.16
2022-12-16T02:04:32.186Z,982.16
2022-12-16T02:05:32.187Z,982.20
2022-12-16T02:06:32.166Z,982.18
2022-12-16T02:07:32.145Z,982.20
2022-12-16T02:08:32.125Z,982.20
2022-12-16T02:09:32.148Z,982.18
2022-12-16T02:10:32.115Z,982.15
2022-12-16T02:11:32.115Z,982.14
2022-12-16T02:12:32.125Z,982.20
2022-12-16T02:13:32.437Z,982.22
2022-12-16T02:14:32.111Z,982.25
2022-12-16T02:15:32.082Z,982.24
2022-12-16T02:16:32.123Z,982.22
2022-12-16T02:17:32.068Z,982.19
2022-12-16T02:18:32.048Z,982.18
2022-12-16T02:19:32.047Z,982.25
2022-12-16T02:20:32.033Z,982.27
2022-12-16T02:21:32.032Z,982.20
2022-12-16T02:22:32.002Z,982.24
2022-12-16T02:23:33.368Z,982.22
2022-12-16T02:24:32.015Z,982.26
2022-12-16T02:25:31.996Z,982.20
2022-12-16T02:26:31.969Z,982.18
2022-12-16T02:27:32.006Z,982.17
2022-12-16T02:28:31.946Z,982.15
2022-12-16T02:29:31.957Z,982.25
2022-12-16T02:30:32.031Z,982.19
2022-12-16T02:31:31.942Z,982.16
2022-12-16T02:32:31.942Z,982.20
2022-12-16T02:33:32.395Z,982.26
2022-12-16T02:34:31.903Z,982.25
2022-12-16T02:35:31.891Z,982.22
2022-12-16T02:36:31.880Z,982.28
2022-12-16T02:37:31.897Z,982.18
2022-12-16T02:38:31.862Z,982.23
2022-12-16T02:39:31.866Z,982.25
2022-12-16T02:40:31.850Z,982.28
2022-12-16T02:41:31.868Z,982.21
2022-12-16T02:42:31.841Z,982.24
2022-12-16T02:43:32.192Z,982.30
2022-12-16T02:44:31.819Z,982.28
2022-12-16T02:45:31.878Z,982.37
2022-12-16T02:46:31.835Z,982.38
2022-12-16T02:47:31.784Z,982.35
2022-12-16T02:48:31.776Z,982.32
2022-12-16T02:49:31.794Z,982.37
2022-12-16T02:50:31.791Z,982.38
2022-12-16T02:51:31.763Z,982.42
2022-12-16T02:52:31.767Z,982.40
2022-12-16T02:53:32.081Z,982.38
2022-12-16T02:54:31.731Z,982.43
2022-12-16T02:55:31.753Z,982.42
2022-12-16T02:56:31.742Z,982.41
2022-12-16T02:57:31.692Z,982.43
2022-12-16T02:58:31.705Z,982.44
2022-12-16T02:59:31.684Z,982.42
2022-12-16T03:00:31.670Z,982.38
2022-12-16T03:01:31.842Z,982.46
2022-12-16T03:02:31.777Z,982.40
2022-12-16T03:03:31.979Z,982.43
2022-12-16T03:04:31.676Z,982.42
2022-12-16T03:05:31.656Z,982.48
2022-12-16T03:06:31.616Z,982.41
2022-12-16T03:07:31.632Z,982.48
2022-12-16T03:08:31.604Z,982.43
2022-12-16T03:09:31.595Z,982.51
2022-12-16T03:11:03.516Z,982.43
2022-12-16T03:11:31.575Z,982.46
2022-12-16T03:12:31.648Z,982.47
2022-12-16T03:13:31.917Z,982.47
2022-12-16T03:14:31.549Z,982.40
2022-12-16T03:15:31.555Z,982.41
2022-12-16T03:16:31.637Z,982.42
2022-12-16T03:17:31.576Z,982.40
2022-12-16T03:18:31.508Z,982.45
2022-12-16T03:19:31.518Z,982.36
2022-12-16T03:20:31.532Z,982.44
2022-12-16T03:21:31.514Z,982.47
2022-12-16T03:22:31.490Z,982.41
2022-12-16T03:23:31.786Z,982.38
2022-12-16T03:24:31.455Z,982.37
2022-12-16T03:25:31.459Z,982.35
2022-12-16T03:26:31.460Z,982.37
2022-12-16T03:27:31.454Z,982.32
2022-12-16T03:28:31.448Z,982.29
2022-12-16T03:29:31.425Z,982.32
2022-12-16T03:30:31.433Z,982.30
2022-12-16T03:31:31.410Z,982.31
2022-12-16T03:32:31.417Z,982.32
2022-12-16T03:33:32.778Z,982.33
2022-12-16T03:34:31.403Z,982.23
2022-12-16T03:35:31.383Z,982.33
2022-12-16T03:36:31.354Z,982.26
2022-12-16T03:37:31.343Z,982.32
2022-12-16T03:38:31.368Z,982.26
2022-12-16T03:39:31.341Z,982.27
2022-12-16T03:40:31.322Z,982.27
2022-12-16T03:41:31.317Z,982.26
2022-12-16T03:42:31.308Z,982.23
2022-12-16T03:43:31.589Z,982.34
2022-12-16T03:44:31.305Z,982.32
2022-12-16T03:45:31.273Z,982.31
2022-12-16T03:46:31.329Z,982.35
2022-12-16T03:47:31.283Z,982.35
2022-12-16T03:48:31.249Z,982.31
2022-12-16T03:49:31.241Z,982.32
2022-12-16T03:50:31.232Z,982.37
2022-12-16T03:51:31.229Z,982.38
2022-12-16T03:52:31.248Z,982.36
2022-12-16T03:53:31.458Z,982.36
2022-12-16T03:54:31.216Z,982.35
2022-12-16T03:55:31.188Z,982.36
2022-12-16T03:56:31.186Z,982.41
2022-12-16T03:57:31.177Z,982.42
2022-12-16T03:58:31.177Z,982.39
2022-12-16T03:59:31.185Z,982.42
2022-12-16T04:00:31.138Z,982.42
2022-12-16T04:01:31.288Z,982.39
2022-12-16T04:02:31.370Z,982.45
2022-12-16T04:03:31.565Z,982.45
2022-12-16T04:04:31.121Z,982.48
2022-12-16T04:05:31.183Z,982.49
2022-12-16T04:06:31.101Z,982.45
2022-12-16T04:07:31.098Z,982.51
2022-12-16T04:08:31.072Z,982.53
2022-12-16T04:09:31.073Z,982.40
2022-12-16T04:10:31.058Z,982.43
2022-12-16T04:11:31.078Z,982.46
2022-12-16T04:12:31.036Z,982.48
2022-12-16T04:13:31.358Z,982.50
2022-12-16T04:14:31.025Z,982.53
2022-12-16T04:15:31.051Z,982.59
2022-12-16T04:16:31.040Z,982.60
2022-12-16T04:17:31.031Z,982.59
2022-12-16T04:18:30.984Z,982.50
2022-12-16T04:19:30.979Z,982.59
2022-12-16T04:20:30.957Z,982.51
2022-12-16T04:21:30.945Z,982.57
2022-12-16T04:22:30.954Z,982.57
2022-12-16T04:23:31.357Z,982.56
2022-12-16T04:24:30.932Z,982.54
2022-12-16T04:25:30.935Z,982.58
2022-12-16T04:26:30.931Z,982.56
2022-12-16T04:27:30.902Z,982.54
2022-12-16T04:28:30.894Z,982.62
2022-12-16T04:29:30.902Z,982.61
2022-12-16T04:30:30.903Z,982.58
2022-12-16T04:31:30.927Z,982.56
2022-12-16T04:32:30.881Z,982.59
2022-12-16T04:33:31.289Z,982.56
2022-12-16T04:34:30.848Z,982.61
2022-12-16T04:35:30.864Z,982.66
2022-12-16T04:36:30.814Z,982.64
2022-12-16T04:37:30.813Z,982.68
2022-12-16T04:38:30.803Z,982.71
2022-12-16T04:39:30.810Z,982.67
2022-12-16T04:40:30.807Z,982.70
2022-12-16T04:41:30.789Z,982.74
2022-12-16T04:42:30.791Z,982.73
2022-12-16T04:43:31.146Z,982.74
2022-12-16T04:44:30.764Z,982.76
2022-12-16T04:45:30.754Z,982.80
2022-12-16T04:46:30.832Z,982.79
2022-12-16T04:47:30.748Z,982.79
2022-12-16T04:48:30.722Z,982.85
2022-12-16T04:49:30.720Z,982.75
2022-12-16T04:50:30.715Z,982.86
2022-12-16T04:51:30.731Z,982.84
2022-12-16T04:52:30.688Z,982.83
2022-12-16T04:53:31.052Z,982.91
2022-12-16T04:54:30.674Z,982.89
2022-12-16T04:55:30.662Z,982.86
2022-12-16T04:56:30.658Z,982.91
2022-12-16T04:57:30.688Z,982.88
2022-12-16T04:58:30.634Z,982.99
2022-12-16T04:59:30.632Z,982.93
2022-12-16T05:00:30.629Z,982.97
2022-12-16T05:01:30.695Z,982.90
2022-12-16T05:02:30.774Z,982.92
2022-12-16T05:03:30.882Z,982.97
2022-12-16T05:04:30.596Z,982.97
2022-12-16T05:05:30.607Z,983.02
2022-12-16T05:06:30.574Z,983.04
2022-12-16T05:07:36.309Z,983.05
2022-12-16T05:08:32.567Z,983.03
2022-12-16T05:09:30.552Z,982.99
2022-12-16T05:10:30.571Z,983.11
2022-12-16T05:11:30.529Z,983.05
2022-12-16T05:12:30.519Z,983.10
2022-12-16T05:13:30.909Z,983.10
2022-12-16T05:14:30.517Z,983.11
2022-12-16T05:15:30.497Z,983.15
2022-12-16T05:16:30.543Z,983.13
2022-12-16T05:17:30.509Z,983.15
2022-12-16T05:18:30.487Z,983.20
2022-12-16T05:19:31.845Z,983.20
2022-12-16T05:20:30.515Z,983.14
2022-12-16T05:21:30.488Z,983.16
2022-12-16T05:22:30.427Z,983.15
2022-12-16T05:23:30.786Z,983.15
2022-12-16T05:24:30.432Z,983.22
2022-12-16T05:25:30.428Z,983.20
2022-12-16T05:26:30.431Z,983.16
2022-12-16T05:27:30.398Z,983.26
2022-12-16T05:28:30.405Z,983.20
2022-12-16T05:29:30.376Z,983.20
2022-12-16T05:30:33.646Z,983.27
2022-12-16T05:31:31.446Z,983.25
2022-12-16T05:32:30.370Z,983.15
2022-12-16T05:33:30.720Z,983.21
2022-12-16T05:34:30.335Z,983.21
2022-12-16T05:35:30.325Z,983.27
2022-12-16T05:36:30.298Z,983.25
2022-12-16T05:37:30.328Z,983.27
2022-12-16T05:38:30.290Z,983.20
2022-12-16T05:39:30.330Z,983.33
2022-12-16T05:40:30.292Z,983.31
2022-12-16T05:41:30.268Z,983.36
2022-12-16T05:42:30.253Z,983.30
2022-12-16T05:43:30.657Z,983.34
2022-12-16T05:44:30.274Z,983.38
2022-12-16T05:45:30.223Z,983.37
2022-12-16T05:46:30.297Z,983.39
2022-12-16T05:47:30.244Z,983.36
2022-12-16T05:48:30.195Z,983.36
2022-12-16T05:49:30.191Z,983.41
2022-12-16T05:50:30.191Z,983.43
2022-12-16T05:51:30.190Z,983.48
2022-12-16T05:52:30.160Z,983.41
2022-12-16T05:53:30.481Z,983.53
2022-12-16T05:54:30.143Z,983.49
2022-12-16T05:55:33.862Z,983.51
2022-12-16T05:56:31.154Z,983.55
2022-12-16T05:57:30.128Z,983.52
2022-12-16T05:58:30.142Z,983.62
2022-12-16T05:59:30.105Z,983.63
2022-12-16T06:00:30.090Z,983.63
2022-12-16T06:01:30.220Z,983.70
2022-12-16T06:02:30.192Z,983.69
2022-12-16T06:03:30.444Z,983.72
2022-12-16T06:04:30.058Z,983.71
2022-12-16T06:05:30.034Z,983.68
2022-12-16T06:06:30.126Z,983.71
2022-12-16T06:07:30.035Z,983.71
2022-12-16T06:08:30.011Z,983.70
2022-12-16T06:09:30.006Z,983.67
2022-12-16T06:10:29.987Z,983.76
2022-12-16T06:11:29.989Z,983.76
2022-12-16T06:12:30.003Z,983.84
2022-12-16T06:13:30.293Z,983.81
2022-12-16T06:14:29.981Z,983.85
2022-12-16T06:15:29.951Z,983.81
2022-12-16T06:16:29.973Z,983.87
2022-12-16T06:17:29.976Z,983.85
2022-12-16T06:18:29.920Z,983.87
2022-12-16T06:19:29.925Z,983.83
2022-12-16T06:20:29.903Z,983.86
2022-12-16T06:21:29.918Z,983.90
2022-12-16T06:22:29.910Z,983.98
2022-12-16T06:23:29.883Z,983.92
2022-12-16T06:24:29.901Z,983.91
2022-12-16T06:25:29.928Z,983.91
2022-12-16T06:26:29.861Z,983.92
2022-12-16T06:27:29.844Z,983.98
2022-12-16T06:28:29.843Z,984.04
2022-12-16T06:29:29.831Z,984.02
2022-12-16T06:30:29.827Z,984.00
2022-12-16T06:31:29.868Z,983.99
2022-12-16T06:32:29.821Z,983.97
2022-12-16T06:33:30.076Z,984.03
2022-12-16T06:34:29.787Z,983.99
2022-12-16T06:35:29.774Z,984.02
2022-12-16T06:36:29.759Z,984.03
2022-12-16T06:37:29.768Z,984.08
2022-12-16T06:38:29.768Z,984.07
2022-12-16T06:39:29.762Z,984.09
2022-12-16T06:40:29.751Z,984.16
2022-12-16T06:41:29.722Z,984.19
2022-12-16T06:42:29.713Z,984.21
2022-12-16T06:43:30.106Z,984.24
2022-12-16T06:44:29.728Z,984.17
2022-12-16T06:45:34.500Z,984.28
2022-12-16T06:46:31.773Z,984.25
2022-12-16T06:47:29.660Z,984.23
2022-12-16T06:48:29.682Z,984.31
2022-12-16T06:49:29.643Z,984.25
2022-12-16T06:50:29.639Z,984.25
2022-12-16T06:51:29.630Z,984.35
2022-12-16T06:52:29.639Z,984.35
2022-12-16T06:53:29.731Z,984.36
2022-12-16T06:54:29.590Z,984.32
2022-12-16T06:55:29.577Z,984.37
2022-12-16T06:56:29.574Z,984.38
2022-12-16T06:57:29.593Z,984.42
2022-12-16T06:58:29.559Z,984.47
2022-12-16T06:59:29.619Z,984.41
2022-12-16T07:00:29.543Z,984.37
2022-12-16T07:01:30.625Z,984.45
2022-12-16T07:02:29.634Z,984.43
2022-12-16T07:03:35.438Z,984.45
2022-12-16T07:04:31.508Z,984.45
2022-12-16T07:05:29.499Z,984.48
2022-12-16T07:06:29.488Z,984.41
2022-12-16T07:07:29.518Z,984.46
2022-12-16T07:08:29.500Z,984.50
2022-12-16T07:09:29.460Z,984.51
2022-12-16T07:10:29.485Z,984.55
2022-12-16T07:11:29.441Z,984.58
2022-12-16T07:12:29.422Z,984.62
2022-12-16T07:13:29.637Z,984.60
2022-12-16T07:14:29.413Z,984.57
2022-12-16T07:15:29.410Z,984.65
2022-12-16T07:16:29.436Z,984.67
2022-12-16T07:17:29.386Z,984.60
2022-12-16T07:18:29.421Z,984.71
2022-12-16T07:19:29.400Z,984.70
2022-12-16T07:20:29.384Z,984.70
2022-12-16T07:21:29.354Z,984.72
2022-12-16T07:22:29.373Z,984.72
2022-12-16T07:23:29.402Z,984.66
2022-12-16T07:24:29.377Z,984.69
2022-12-16T07:25:29.373Z,984.71
2022-12-16T07:26:29.341Z,984.73
2022-12-16T07:27:29.314Z,984.82
2022-12-16T07:28:29.293Z,984.76
2022-12-16T07:29:29.307Z,984.78
2022-12-16T07:30:29.285Z,984.86
2022-12-16T07:31:29.339Z,984.87
2022-12-16T07:32:29.252Z,984.87
2022-12-16T07:33:29.280Z,984.78
2022-12-16T07:34:29.227Z,984.89
2022-12-16T07:35:29.274Z,985.02
2022-12-16T07:36:29.231Z,984.92
2022-12-16T07:37:29.242Z,984.92
2022-12-16T07:38:29.205Z,984.90
2022-12-16T07:39:29.232Z,984.96
2022-12-16T07:40:29.252Z,985.11
2022-12-16T07:41:29.186Z,985.07
2022-12-16T07:42:29.183Z,984.96
2022-12-16T07:43:29.279Z,985.02
2022-12-16T07:44:29.205Z,985.12
2022-12-16T07:45:29.262Z,985.09
2022-12-16T07:46:29.152Z,985.14
2022-12-16T07:47:29.105Z,985.15
2022-12-16T07:48:29.105Z,985.22
2022-12-16T07:49:29.119Z,985.21
2022-12-16T07:50:29.103Z,985.21
2022-12-16T07:51:29.082Z,985.17
2022-12-16T07:52:29.128Z,985.26
2022-12-16T07:53:31.307Z,985.32
2022-12-16T07:54:29.056Z,985.28
2022-12-16T07:55:29.048Z,985.31
2022-12-16T07:56:29.037Z,985.31
2022-12-16T07:57:29.056Z,985.32
2022-12-16T07:58:29.046Z,985.39
2022-12-16T07:59:28.999Z,985.36
2022-12-16T08:00:28.983Z,985.38
2022-12-16T08:01:29.083Z,985.35
2022-12-16T08:02:29.265Z,985.38
2022-12-16T08:03:30.361Z,985.39
2022-12-16T08:04:29.216Z,985.46
2022-12-16T08:05:29.170Z,985.44
2022-12-16T08:06:28.954Z,985.46
2022-12-16T08:07:28.987Z,985.43
2022-12-16T08:08:28.982Z,985.49
2022-12-16T08:09:28.934Z,985.46
2022-12-16T08:10:28.918Z,985.43
2022-12-16T08:11:28.895Z,985.47
2022-12-16T08:12:28.874Z,985.46
2022-12-16T08:13:28.912Z,985.51
2022-12-16T08:14:28.859Z,985.51
2022-12-16T08:15:29.840Z,985.49
2022-12-16T08:16:29.015Z,985.50
2022-12-16T08:17:28.842Z,985.52
2022-12-16T08:18:28.825Z,985.53
2022-12-16T08:19:28.796Z,985.51
2022-12-16T08:20:28.883Z,985.57
2022-12-16T08:21:28.833Z,985.57
2022-12-16T08:22:28.944Z,985.51
2022-12-16T08:23:28.803Z,985.55
2022-12-16T08:24:28.770Z,985.51
2022-12-16T08:25:28.760Z,985.53
2022-12-16T08:26:28.785Z,985.55
2022-12-16T08:27:28.733Z,985.60
2022-12-16T08:28:28.744Z,985.60
2022-12-16T08:29:43.797Z,985.56
2022-12-16T08:30:30.773Z,985.58
2022-12-16T08:31:28.743Z,985.61
2022-12-16T08:32:28.729Z,985.61
2022-12-16T08:33:28.674Z,985.67
2022-12-16T08:34:28.700Z,985.68
2022-12-16T08:35:28.688Z,985.73
2022-12-16T08:36:28.663Z,985.75
2022-12-16T08:37:28.644Z,985.77
2022-12-16T08:38:28.650Z,985.79
2022-12-16T08:39:28.654Z,985.81
2022-12-16T08:40:36.761Z,985.82
2022-12-16T08:41:30.604Z,985.87
2022-12-16T08:42:28.583Z,985.82
2022-12-16T08:43:28.715Z,985.79
2022-12-16T08:44:28.726Z,985.85
2022-12-16T08:45:28.592Z,985.86
2022-12-16T08:46:28.644Z,985.90
2022-12-16T08:47:28.553Z,985.86
2022-12-16T08:48:28.548Z,985.90
2022-12-16T08:49:28.523Z,985.90
2022-12-16T08:50:28.516Z,985.90
2022-12-16T08:51:28.533Z,985.92
2022-12-16T08:52:28.633Z,985.97
2022-12-16T08:53:28.623Z,985.95
2022-12-16T08:54:28.487Z,986.01
2022-12-16T08:55:29.959Z,986.04
2022-12-16T08:56:29.496Z,986.01
2022-12-16T08:57:28.458Z,985.97
2022-12-16T08:58:28.462Z,986.00
2022-12-16T08:59:28.458Z,985.98
2022-12-16T09:00:28.445Z,986.03
2022-12-16T09:01:28.489Z,986.03
2022-12-16T09:02:28.594Z,985.99
2022-12-16T09:03:28.431Z,985.95
2022-12-16T09:04:28.398Z,986.06
2022-12-16T09:05:28.406Z,986.07
2022-12-16T09:06:28.373Z,986.12
2022-12-16T09:07:28.382Z,986.10
2022-12-16T09:08:28.359Z,986.12
2022-12-16T09:09:28.347Z,986.10
2022-12-16T09:10:28.328Z,986.03
2022-12-16T09:12:39.360Z,986.20
2022-12-16T09:13:39.388Z,986.16
2022-12-16T09:14:39.365Z,986.10
2022-12-16T09:15:39.422Z,986.06
2022-12-16T09:16:39.407Z,986.16
2022-12-16T09:17:39.344Z,986.12
2022-12-16T09:18:39.353Z,986.18
2022-12-16T09:19:40.481Z,986.23
2022-12-16T09:20:40.472Z,986.27
2022-12-16T09:21:40.440Z,986.30
2022-12-16T09:22:40.439Z,986.31
2022-12-16T09:23:40.421Z,986.31
2022-12-16T09:24:40.427Z,986.30
2022-12-16T09:25:40.415Z,986.36
2022-12-16T09:26:40.452Z,986.38
2022-12-16T09:27:40.377Z,986.38
2022-12-16T09:28:40.390Z,986.35
2022-12-16T09:29:43.590Z,986.38
2022-12-16T09:30:41.363Z,986.39
2022-12-16T09:31:40.494Z,986.34
2022-12-16T09:32:40.363Z,986.39
2022-12-16T09:33:40.313Z,986.39
2022-12-16T09:34:40.311Z,986.42
2022-12-16T09:35:40.467Z,986.46
2022-12-16T09:36:40.302Z,986.46
2022-12-16T09:37:40.321Z,986.45
2022-12-16T09:38:40.283Z,986.45
2022-12-16T09:39:40.275Z,986.50
2022-12-16T09:40:40.258Z,986.44
2022-12-16T09:41:44.622Z,986.45
2022-12-16T09:42:41.272Z,986.57
2022-12-16T09:43:40.249Z,986.54
2022-12-16T09:44:40.222Z,986.57
2022-12-16T09:45:40.204Z,986.60
2022-12-16T09:46:40.363Z,986.54
2022-12-16T09:47:40.184Z,986.59
2022-12-16T09:48:40.197Z,986.55
2022-12-16T09:49:40.194Z,986.59
2022-12-16T09:50:40.149Z,986.60
2022-12-16T09:51:40.184Z,986.65
2022-12-16T09:52:40.149Z,986.60
2022-12-16T09:53:40.190Z,986.59
2022-12-16T09:54:40.120Z,986.61
2022-12-16T09:55:40.127Z,986.57
2022-12-16T09:56:40.098Z,986.56
2022-12-16T09:57:40.089Z,986.62
2022-12-16T09:58:40.108Z,986.66
2022-12-16T09:59:40.092Z,986.57
2022-12-16T10:00:40.067Z,986.54
2022-12-16T10:01:40.351Z,986.55
2022-12-16T10:02:40.319Z,986.63
2022-12-16T10:03:40.676Z,986.63
2022-12-16T10:04:40.074Z,986.56
2022-12-16T10:05:40.022Z,986.50
2022-12-16T10:06:40.019Z,986.61
2022-12-16T10:07:40.021Z,986.54
2022-12-16T10:08:40.006Z,986.48
2022-12-16T10:09:39.993Z,986.49
2022-12-16T10:10:40.015Z,986.48
2022-12-16T10:11:39.971Z,986.52
2022-12-16T10:12:39.961Z,986.45
2022-12-16T10:13:39.961Z,986.47
2022-12-16T10:14:39.965Z,986.48
2022-12-16T10:15:39.965Z,986.50
2022-12-16T10:16:39.938Z,986.46
2022-12-16T10:17:39.915Z,986.44
2022-12-16T10:18:40.000Z,986.49
2022-12-16T10:19:39.922Z,986.49
2022-12-16T10:20:39.870Z,986.47
2022-12-16T10:21:39.873Z,986.48
2022-12-16T10:22:39.897Z,986.50
2022-12-16T10:23:39.949Z,986.48
2022-12-16T10:24:39.853Z,986.55
2022-12-16T10:25:39.867Z,986.49
2022-12-16T10:26:39.832Z,986.54
2022-12-16T10:27:39.812Z,986.54
2022-12-16T10:28:39.813Z,986.44
2022-12-16T10:29:39.793Z,986.58
2022-12-16T10:30:40.866Z,986.47
2022-12-16T10:31:39.866Z,986.50
2022-12-16T10:32:39.783Z,986.47
2022-12-16T10:33:39.752Z,986.55
2022-12-16T10:34:39.767Z,986.42
2022-12-16T10:35:39.765Z,986.42
2022-12-16T10:36:39.737Z,986.43
2022-12-16T10:37:39.725Z,986.46
2022-12-16T10:38:39.712Z,986.49
2022-12-16T10:39:39.719Z,986.49
2022-12-16T10:40:39.701Z,986.39
2022-12-16T10:41:39.683Z,986.50
2022-12-16T10:42:39.671Z,986.46
2022-12-16T10:43:39.664Z,986.40
2022-12-16T10:44:39.678Z,986.41
2022-12-16T10:45:39.640Z,986.48
2022-12-16T10:46:39.732Z,986.44
2022-12-16T10:47:39.631Z,986.44
2022-12-16T10:48:43.883Z,986.44
2022-12-16T10:49:41.732Z,986.51
2022-12-16T10:50:39.603Z,986.54
2022-12-16T10:51:39.597Z,986.55
2022-12-16T10:52:39.558Z,986.52
2022-12-16T10:53:39.609Z,986.51
2022-12-16T10:54:39.571Z,986.50
2022-12-16T10:55:39.552Z,986.48
2022-12-16T10:56:39.525Z,986.45
2022-12-16T10:57:39.556Z,986.48
2022-12-16T10:58:39.530Z,986.55
2022-12-16T10:59:39.525Z,986.52
2022-12-16T11:00:39.495Z,986.52
2022-12-16T11:01:39.630Z,986.54
2022-12-16T11:02:39.629Z,986.58
2022-12-16T11:03:39.808Z,986.56
2022-12-16T11:04:44.367Z,986.57
2022-12-16T11:05:41.467Z,986.55
2022-12-16T11:06:39.438Z,986.55
2022-12-16T11:07:39.440Z,986.59
2022-12-16T11:08:39.467Z,986.58
2022-12-16T11:09:39.412Z,986.61
2022-12-16T11:10:39.438Z,986.64
2022-12-16T11:11:39.389Z,986.57
2022-12-16T11:12:39.387Z,986.67
2022-12-16T11:13:39.403Z,986.64
2022-12-16T11:14:39.379Z,986.60
2022-12-16T11:15:41.910Z,986.66
2022-12-16T11:16:39.451Z,986.65
2022-12-16T11:17:39.339Z,986.63
2022-12-16T11:18:39.339Z,986.65
2022-12-16T11:19:39.356Z,986.68
2022-12-16T11:20:39.331Z,986.71
2022-12-16T11:21:39.304Z,986.71
2022-12-16T11:22:39.309Z,986.64
2022-12-16T11:23:39.292Z,986.68
2022-12-16T11:24:39.294Z,986.67
2022-12-16T11:25:39.251Z,986.66
2022-12-16T11:26:39.252Z,986.64
2022-12-16T11:27:39.250Z,986.61
2022-12-16T11:28:39.255Z,986.68
2022-12-16T11:29:39.213Z,986.69
2022-12-16T11:30:39.211Z,986.73
2022-12-16T11:31:39.229Z,986.74
2022-12-16T11:32:39.193Z,986.71
2022-12-16T11:33:39.193Z,986.73
2022-12-16T11:34:39.173Z,986.75
2022-12-16T11:35:39.232Z,986.72
2022-12-16T11:36:39.157Z,986.70
2022-12-16T11:37:39.143Z,986.74
2022-12-16T11:38:39.151Z,986.70
2022-12-16T11:39:39.138Z,986.66
2022-12-16T11:40:39.172Z,986.71
2022-12-16T11:41:39.117Z,986.70
2022-12-16T11:42:39.102Z,986.71
2022-12-16T11:43:39.083Z,986.73
2022-12-16T11:44:39.098Z,986.68
2022-12-16T11:45:39.092Z,986.70
2022-12-16T11:46:39.085Z,986.70
2022-12-16T11:47:39.066Z,986.71
2022-12-16T11:48:39.028Z,986.71
2022-12-16T11:49:39.023Z,986.74
2022-12-16T11:50:39.018Z,986.75
2022-12-16T11:51:39.062Z,986.80
2022-12-16T11:52:39.014Z,986.82
2022-12-16T11:53:38.988Z,986.81
2022-12-16T11:54:38.987Z,986.76
2022-12-16T11:56:41.106Z,986.79
2022-12-16T11:57:38.981Z,986.89
2022-12-16T11:58:38.945Z,986.89
2022-12-16T11:59:38.957Z,986.86
2022-12-16T12:00:38.931Z,986.89
2022-12-16T12:01:44.952Z,986.85
2022-12-16T12:02:39.971Z,986.81
2022-12-16T12:03:39.582Z,986.81
2022-12-16T12:04:38.964Z,986.90
2022-12-16T12:05:38.899Z,986.92
2022-12-16T12:06:38.898Z,986.86
2022-12-16T12:07:44.612Z,986.89
2022-12-16T12:08:39.834Z,986.92
2022-12-16T12:09:38.840Z,986.92
2022-12-16T12:10:38.851Z,986.97
2022-12-16T12:11:38.809Z,986.96
2022-12-16T12:12:38.817Z,986.98
2022-12-16T12:13:44.515Z,986.98
2022-12-16T12:14:39.862Z,986.97
2022-12-16T12:15:38.788Z,986.99
2022-12-16T12:16:38.893Z,986.94
2022-12-16T12:17:38.772Z,986.93
2022-12-16T12:18:38.747Z,986.96
2022-12-16T12:19:43.810Z,986.99
2022-12-16T12:20:40.736Z,986.99
2022-12-16T12:21:38.730Z,987.05
2022-12-16T12:22:38.725Z,987.03
2022-12-16T12:23:38.712Z,987.03
2022-12-16T12:24:38.698Z,987.00
2022-12-16T12:25:38.683Z,987.13
2022-12-16T12:26:38.654Z,987.10
2022-12-16T12:27:38.696Z,987.07
2022-12-16T12:28:38.643Z,987.05
2022-12-16T12:29:38.646Z,987.01
2022-12-16T12:30:38.651Z,987.04